createdAt,value
2019-01-29T00:01:12.883Z,1.55
2019-01-29T00:03:44.278Z,1.52
2019-01-29T00:06:15.363Z,1.50
2019-01-29T00:08:45.716Z,1.45
2019-01-29T00:11:15.437Z,1.41
2019-01-29T00:13:44.907Z,1.39
2019-01-29T00:16:14.357Z,1.38
2019-01-29T00:18:43.831Z,1.32
2019-01-29T00:21:13.638Z,1.31
2019-01-29T00:23:43.118Z,1.33
2019-01-29T00:26:12.568Z,1.36
2019-01-29T00:28:42.073Z,1.38
2019-01-29T00:31:11.509Z,1.41
2019-01-29T00:33:40.982Z,1.40
2019-01-29T00:36:10.447Z,1.39
2019-01-29T00:38:39.923Z,1.36
2019-01-29T00:41:09.440Z,1.30
2019-01-29T00:43:38.903Z,1.19
2019-01-29T00:46:08.452Z,1.20
2019-01-29T00:48:37.913Z,1.15
2019-01-29T00:51:07.626Z,1.16
2019-01-29T00:53:37.174Z,1.16
2019-01-29T00:56:06.620Z,1.17
2019-01-29T00:58:36.433Z,1.18
2019-01-29T01:01:06.865Z,1.13
2019-01-29T01:03:36.769Z,1.12
2019-01-29T01:06:06.332Z,1.12
2019-01-29T01:08:35.801Z,1.08
2019-01-29T01:11:05.279Z,1.06
2019-01-29T01:13:34.823Z,1.02
2019-01-29T01:16:05.017Z,0.92
2019-01-29T01:18:34.499Z,0.89
2019-01-29T01:21:03.945Z,0.89
2019-01-29T01:23:33.486Z,0.91
2019-01-29T01:26:02.944Z,0.92
2019-01-29T01:28:32.765Z,0.96
2019-01-29T01:31:02.223Z,0.95
2019-01-29T01:33:31.686Z,0.99
2019-01-29T01:36:01.501Z,0.94
2019-01-29T01:38:30.980Z,0.94
2019-01-29T01:41:00.457Z,0.93
2019-01-29T01:43:30.209Z,0.87
2019-01-29T01:45:59.676Z,0.80
2019-01-29T01:48:29.244Z,0.78
2019-01-29T01:50:58.732Z,0.72
2019-01-29T01:53:28.188Z,0.72
2019-01-29T01:55:57.634Z,0.69
2019-01-29T01:58:27.108Z,0.67
2019-01-29T02:00:56.612Z,0.62
2019-01-29T02:03:26.370Z,0.63
2019-01-29T02:05:55.927Z,0.64
2019-01-29T02:08:25.427Z,0.66
2019-01-29T02:10:54.893Z,0.69
2019-01-29T02:13:24.855Z,0.65
2019-01-29T02:15:54.311Z,0.67
2019-01-29T02:18:23.810Z,0.67
2019-01-29T02:20:53.263Z,0.68
2019-01-29T02:23:22.996Z,0.63
2019-01-29T02:25:52.466Z,0.64
2019-01-29T02:28:21.951Z,0.63
2019-01-29T02:30:51.425Z,0.63
2019-01-29T02:33:20.894Z,0.62
2019-01-29T02:35:50.372Z,0.61
2019-01-29T02:38:19.850Z,0.59
2019-01-29T02:40:49.581Z,0.59
2019-01-29T02:43:19.722Z,0.60
2019-01-29T02:45:49.194Z,0.63
2019-01-29T02:48:18.669Z,0.62
2019-01-29T02:50:48.120Z,0.56
2019-01-29T02:53:18.562Z,0.59
2019-01-29T02:55:48.171Z,0.59
2019-01-29T02:58:17.721Z,0.60
2019-01-29T03:00:47.211Z,0.57
2019-01-29T03:03:16.677Z,0.54
2019-01-29T03:05:46.137Z,0.52
2019-01-29T03:08:15.596Z,0.49
2019-01-29T03:10:45.050Z,0.51
2019-01-29T03:13:14.538Z,0.53
2019-01-29T03:15:43.992Z,0.46
2019-01-29T03:18:13.797Z,0.43
2019-01-29T03:20:43.253Z,0.39
2019-01-29T03:23:12.709Z,0.40
2019-01-29T03:25:42.195Z,0.37
2019-01-29T03:28:11.628Z,0.39
2019-01-29T03:30:41.278Z,0.33
2019-01-29T03:33:10.718Z,0.32
2019-01-29T03:35:40.194Z,0.28
2019-01-29T03:38:09.750Z,0.32
2019-01-29T03:40:39.208Z,0.33
2019-01-29T03:43:10.461Z,0.34
2019-01-29T03:45:39.928Z,0.33
2019-01-29T03:48:09.398Z,0.33
2019-01-29T03:50:39.118Z,0.34
2019-01-29T03:53:08.573Z,0.34
2019-01-29T03:55:38.036Z,0.23
2019-01-29T03:58:07.493Z,0.22
2019-01-29T04:00:37.425Z,0.22
2019-01-29T04:03:06.863Z,0.22
2019-01-29T04:05:36.897Z,0.24
2019-01-29T04:08:06.364Z,0.24
2019-01-29T04:10:36.216Z,0.26
2019-01-29T04:13:05.748Z,0.22
2019-01-29T04:15:35.206Z,0.23
2019-01-29T04:18:04.654Z,0.22
2019-01-29T04:20:34.134Z,0.17
2019-01-29T04:23:03.615Z,0.20
2019-01-29T04:25:33.516Z,0.20
2019-01-29T04:28:02.975Z,0.16
2019-01-29T04:30:32.443Z,0.14
2019-01-29T04:33:01.905Z,0.14
2019-01-29T04:35:31.649Z,0.13
2019-01-29T04:38:01.108Z,0.12
2019-01-29T04:40:30.640Z,0.13
2019-01-29T04:43:00.098Z,0.14
2019-01-29T04:45:29.567Z,0.06
2019-01-29T04:47:59.027Z,0.11
2019-01-29T04:50:28.488Z,0.11
2019-01-29T04:52:57.967Z,0.10
2019-01-29T04:55:27.440Z,0.09
2019-01-29T04:57:58.530Z,0.09
2019-01-29T05:00:28.413Z,0.05
2019-01-29T05:02:57.865Z,0.08
2019-01-29T05:05:27.334Z,0.07
2019-01-29T05:07:56.787Z,0.06
2019-01-29T05:10:26.353Z,0.08
2019-01-29T05:12:56.205Z,0.08
2019-01-29T05:15:25.691Z,0.12
2019-01-29T05:17:55.159Z,0.14
2019-01-29T05:20:24.870Z,0.14
2019-01-29T05:22:54.320Z,0.15
2019-01-29T05:25:24.117Z,0.16
2019-01-29T05:27:53.663Z,0.18
2019-01-29T05:30:24.631Z,0.23
2019-01-29T05:32:54.082Z,0.24
2019-01-29T05:35:23.571Z,0.26
2019-01-29T05:37:53.028Z,0.26
2019-01-29T05:40:23.631Z,0.24
2019-01-29T05:42:53.511Z,0.22
2019-01-29T05:45:23.609Z,0.26
2019-01-29T05:47:53.062Z,0.30
2019-01-29T05:50:22.514Z,0.30
2019-01-29T05:52:51.956Z,0.27
2019-01-29T05:55:21.595Z,0.20
2019-01-29T05:57:51.029Z,0.70
2019-01-29T06:00:25.165Z,1.31
2019-01-29T06:02:56.267Z,1.19
2019-01-29T06:05:26.061Z,0.79
2019-01-29T06:07:55.539Z,0.56
2019-01-29T06:10:25.039Z,0.29
2019-01-29T06:12:54.493Z,0.10
2019-01-29T06:15:25.409Z,0.03
2019-01-29T06:17:54.871Z,0.07
2019-01-29T06:20:31.477Z,0.04
2019-01-29T06:23:00.990Z,0.09
2019-01-29T06:25:30.800Z,0.08
2019-01-29T06:28:00.233Z,0.09
2019-01-29T06:30:29.821Z,0.15
2019-01-29T06:32:59.280Z,0.20
2019-01-29T06:35:28.730Z,0.19
2019-01-29T06:37:58.180Z,0.24
2019-01-29T06:40:28.537Z,0.27
2019-01-29T06:42:57.979Z,0.24
2019-01-29T06:45:27.755Z,0.19
2019-01-29T06:47:57.222Z,0.22
2019-01-29T06:50:28.256Z,0.23
2019-01-29T06:52:57.697Z,0.26
2019-01-29T06:55:27.165Z,0.26
2019-01-29T06:57:56.634Z,0.25
2019-01-29T07:00:28.209Z,0.23
2019-01-29T07:02:57.707Z,0.15
2019-01-29T07:05:27.200Z,0.23
2019-01-29T07:07:56.632Z,0.27
2019-01-29T07:10:27.322Z,0.34
2019-01-29T07:12:56.838Z,0.38
2019-01-29T07:15:45.898Z,0.41
2019-01-29T07:18:26.138Z,0.46
2019-01-29T07:20:55.591Z,0.50
2019-01-29T07:23:25.054Z,0.49
2019-01-29T07:25:55.690Z,0.54
2019-01-29T07:28:25.502Z,0.56
2019-01-29T07:30:55.101Z,0.47
2019-01-29T07:33:24.817Z,0.53
2019-01-29T07:35:54.272Z,0.59
2019-01-29T07:38:23.785Z,0.61
2019-01-29T07:40:53.260Z,0.64
2019-01-29T07:43:22.960Z,0.68
2019-01-29T07:45:52.428Z,0.65
2019-01-29T07:48:21.892Z,0.65
2019-01-29T07:50:51.344Z,0.73
2019-01-29T07:53:21.002Z,0.75
2019-01-29T07:55:50.785Z,0.77
2019-01-29T07:58:20.229Z,0.81
2019-01-29T08:00:49.721Z,0.87
2019-01-29T08:03:19.156Z,0.94
2019-01-29T08:05:48.925Z,1.01
2019-01-29T08:08:18.371Z,1.03
2019-01-29T08:10:48.235Z,1.11
2019-01-29T08:13:18.060Z,1.11
2019-01-29T08:15:47.522Z,1.16
2019-01-29T08:18:17.119Z,1.14
2019-01-29T08:20:46.554Z,1.12
2019-01-29T08:23:16.011Z,1.13
2019-01-29T08:25:47.888Z,1.16
2019-01-29T08:28:16.617Z,1.20
2019-01-29T08:30:46.688Z,1.25
2019-01-29T08:33:16.203Z,1.27
2019-01-29T08:35:45.667Z,1.30
2019-01-29T08:38:15.120Z,1.29
2019-01-29T08:40:44.583Z,1.25
2019-01-29T08:43:14.111Z,1.24
2019-01-29T08:45:43.883Z,1.17
2019-01-29T08:48:13.333Z,1.18
2019-01-29T08:50:42.784Z,1.20
2019-01-29T08:53:12.269Z,1.19
2019-01-29T08:55:41.721Z,1.17
2019-01-29T08:58:11.554Z,1.14
2019-01-29T09:00:41.282Z,1.13
2019-01-29T09:03:10.735Z,1.14
2019-01-29T09:05:40.536Z,1.15
2019-01-29T09:08:10.054Z,1.17
2019-01-29T09:10:39.860Z,1.18
2019-01-29T09:13:09.572Z,1.18
2019-01-29T09:15:39.034Z,1.17
2019-01-29T09:18:08.901Z,1.16
2019-01-29T09:20:38.330Z,1.16
2019-01-29T09:23:07.785Z,1.19
2019-01-29T09:25:37.230Z,1.34
2019-01-29T09:28:06.684Z,1.38
2019-01-29T09:30:36.542Z,1.47
2019-01-29T09:33:06.023Z,1.54
2019-01-29T09:35:35.472Z,1.63
2019-01-29T09:38:05.003Z,1.77
2019-01-29T09:40:34.438Z,1.86
2019-01-29T09:43:03.976Z,2.01
2019-01-29T09:45:33.428Z,2.31
2019-01-29T09:48:03.166Z,2.56
2019-01-29T09:50:32.623Z,2.78
2019-01-29T09:53:02.081Z,2.74
2019-01-29T09:55:31.796Z,2.83
2019-01-29T09:58:01.264Z,2.87
2019-01-29T10:00:33.740Z,2.96
2019-01-29T10:03:03.562Z,2.95
2019-01-29T10:05:33.080Z,2.93
2019-01-29T10:08:02.561Z,3.03
2019-01-29T10:10:32.005Z,2.84
2019-01-29T10:13:01.824Z,2.81
2019-01-29T10:15:33.283Z,2.94
2019-01-29T10:18:02.753Z,2.97
2019-01-29T10:20:32.266Z,3.04
2019-01-29T10:23:02.591Z,3.14
2019-01-29T10:25:37.497Z,3.16
2019-01-29T10:28:03.506Z,3.12
2019-01-29T10:30:33.019Z,3.22
2019-01-29T10:33:02.479Z,3.15
2019-01-29T10:35:31.929Z,3.12
2019-01-29T10:38:06.194Z,3.00
2019-01-29T10:40:35.655Z,2.93
2019-01-29T10:43:05.351Z,2.87
2019-01-29T10:45:34.802Z,2.71
2019-01-29T10:48:04.620Z,2.58
2019-01-29T10:50:34.134Z,2.61
2019-01-29T10:53:03.935Z,2.70
2019-01-29T10:55:33.378Z,2.80
2019-01-29T10:58:02.845Z,2.77
2019-01-29T11:00:38.535Z,2.73
2019-01-29T11:03:08.934Z,2.91
2019-01-29T11:05:38.600Z,3.06
2019-01-29T11:08:08.300Z,3.23
2019-01-29T11:10:37.761Z,3.36
2019-01-29T11:13:07.450Z,3.57
2019-01-29T11:15:39.292Z,3.62
2019-01-29T11:18:11.374Z,3.70
2019-01-29T11:20:40.810Z,3.81
2019-01-29T11:23:10.357Z,3.76
2019-01-29T11:25:39.802Z,3.58
2019-01-29T11:28:09.277Z,3.54
2019-01-29T11:30:40.755Z,3.49
2019-01-29T11:33:11.286Z,3.49
2019-01-29T11:35:41.096Z,3.60
2019-01-29T11:38:10.568Z,3.71
2019-01-29T11:40:40.085Z,3.56
2019-01-29T11:43:09.543Z,3.58
2019-01-29T11:45:41.940Z,3.64
2019-01-29T11:48:11.424Z,3.64
2019-01-29T11:50:41.039Z,3.69
2019-01-29T11:53:10.495Z,3.69
2019-01-29T11:55:39.949Z,3.68
2019-01-29T11:58:09.406Z,3.51
2019-01-29T12:00:45.820Z,3.53
2019-01-29T12:03:15.470Z,3.30
2019-01-29T12:05:44.937Z,3.19
2019-01-29T12:08:14.654Z,3.24
2019-01-29T12:10:44.093Z,3.19
2019-01-29T12:13:14.049Z,3.27
2019-01-29T12:15:43.823Z,3.16
2019-01-29T12:18:13.349Z,2.95
2019-01-29T12:20:43.366Z,2.89
2019-01-29T12:23:13.002Z,2.93
2019-01-29T12:25:42.468Z,2.89
2019-01-29T12:28:11.932Z,2.81
2019-01-29T12:30:46.986Z,2.71
2019-01-29T12:33:17.297Z,2.76
2019-01-29T12:35:46.775Z,2.81
2019-01-29T12:38:16.244Z,2.89
2019-01-29T12:40:45.696Z,2.92
2019-01-29T12:43:15.139Z,2.95
2019-01-29T12:45:44.613Z,2.89
2019-01-29T12:48:14.462Z,2.87
2019-01-29T12:50:45.525Z,2.91
2019-01-29T12:53:16.641Z,2.96
2019-01-29T12:55:46.091Z,2.88
2019-01-29T12:58:15.561Z,3.04
2019-01-29T13:00:46.680Z,3.10
2019-01-29T13:03:16.169Z,3.09
2019-01-29T13:05:45.608Z,3.07
2019-01-29T13:08:15.077Z,3.01
2019-01-29T13:10:44.801Z,3.06
2019-01-29T13:13:14.415Z,3.11
2019-01-29T13:15:44.847Z,3.08
2019-01-29T13:18:14.331Z,3.13
2019-01-29T13:20:43.779Z,3.22
2019-01-29T13:23:13.250Z,3.21
2019-01-29T13:25:42.738Z,3.27
2019-01-29T13:28:12.277Z,3.29
2019-01-29T13:30:47.521Z,3.25
2019-01-29T13:33:17.423Z,3.09
2019-01-29T13:35:46.942Z,3.13
2019-01-29T13:38:16.576Z,3.15
2019-01-29T13:40:46.037Z,3.21
2019-01-29T13:43:15.840Z,3.22
2019-01-29T13:45:47.234Z,3.24
2019-01-29T13:48:16.523Z,3.29
2019-01-29T13:50:48.607Z,3.22
2019-01-29T13:53:18.371Z,3.20
2019-01-29T13:55:47.821Z,3.20
2019-01-29T13:58:17.290Z,3.17
2019-01-29T14:00:46.739Z,3.22
2019-01-29T14:03:16.214Z,3.20
2019-01-29T14:05:45.655Z,3.18
2019-01-29T14:08:15.397Z,3.15
2019-01-29T14:10:44.860Z,3.07
2019-01-29T14:13:14.528Z,3.10
2019-01-29T14:15:48.648Z,3.13
2019-01-29T14:18:19.300Z,3.20
2019-01-29T14:20:48.753Z,3.27
2019-01-29T14:23:18.197Z,3.30
2019-01-29T14:25:47.677Z,3.24
2019-01-29T14:28:17.195Z,3.24
2019-01-29T14:30:46.958Z,3.22
2019-01-29T14:33:16.614Z,3.25
2019-01-29T14:35:46.074Z,3.28
2019-01-29T14:38:21.565Z,3.29
2019-01-29T14:40:51.105Z,3.31
2019-01-29T14:43:30.599Z,3.33
2019-01-29T14:46:00.033Z,3.32
2019-01-29T14:48:29.799Z,3.20
2019-01-29T14:50:59.251Z,3.10
2019-01-29T14:53:30.347Z,3.11
2019-01-29T14:55:59.822Z,3.11
2019-01-29T14:58:29.662Z,3.07
2019-01-29T15:00:59.166Z,3.04
2019-01-29T15:03:28.644Z,3.09
2019-01-29T15:05:58.110Z,3.05
2019-01-29T15:08:27.584Z,3.07
2019-01-29T15:10:57.041Z,3.08
2019-01-29T15:13:26.762Z,3.01
2019-01-29T15:15:57.872Z,2.97
2019-01-29T15:18:31.381Z,2.90
2019-01-29T15:21:01.263Z,2.81
2019-01-29T15:23:30.710Z,2.80
2019-01-29T15:26:00.175Z,2.87
2019-01-29T15:28:30.688Z,2.82
2019-01-29T15:31:00.171Z,2.78
2019-01-29T15:33:29.607Z,2.67
2019-01-29T15:35:59.065Z,2.58
2019-01-29T15:38:28.583Z,2.57
2019-01-29T15:40:58.035Z,2.53
2019-01-29T15:43:27.825Z,2.47
2019-01-29T15:45:57.688Z,2.37
2019-01-29T15:48:27.449Z,2.31
2019-01-29T15:50:56.971Z,2.27
2019-01-29T15:53:26.581Z,2.25
2019-01-29T15:55:56.106Z,2.16
2019-01-29T15:58:25.715Z,2.00
2019-01-29T16:00:55.197Z,1.88
2019-01-29T16:03:24.716Z,1.70
2019-01-29T16:05:54.198Z,1.49
2019-01-29T16:08:23.915Z,1.34
2019-01-29T16:10:53.379Z,1.18
2019-01-29T16:13:22.880Z,1.03
2019-01-29T16:15:52.322Z,0.91
2019-01-29T16:18:22.126Z,0.83
2019-01-29T16:20:51.591Z,0.74
2019-01-29T16:23:21.035Z,0.63
2019-01-29T16:25:50.500Z,0.63
2019-01-29T16:28:19.944Z,0.65
2019-01-29T16:30:49.431Z,0.69
2019-01-29T16:33:19.155Z,0.71
2019-01-29T16:35:48.607Z,0.71
2019-01-29T16:38:18.056Z,0.63
2019-01-29T16:40:47.522Z,0.47
2019-01-29T16:43:16.973Z,0.26
2019-01-29T16:45:46.694Z,0.14
2019-01-29T16:48:16.299Z,0.03
2019-01-29T16:50:45.755Z,-0.08
2019-01-29T16:53:15.504Z,-0.22
2019-01-29T16:55:45.317Z,-0.34
2019-01-29T16:58:14.771Z,-0.42
2019-01-29T17:00:44.859Z,-0.52
2019-01-29T17:03:14.315Z,-0.51
2019-01-29T17:05:43.799Z,-0.56
2019-01-29T17:08:13.658Z,-0.67
2019-01-29T17:10:43.479Z,-0.69
2019-01-29T17:13:12.943Z,-0.75
2019-01-29T17:15:43.104Z,-0.83
2019-01-29T17:18:13.105Z,-0.91
2019-01-29T17:20:44.071Z,-1.02
2019-01-29T17:23:13.599Z,-1.05
2019-01-29T17:25:43.108Z,-1.10
2019-01-29T17:28:12.578Z,-1.09
2019-01-29T17:30:47.018Z,-1.15
2019-01-29T17:33:18.502Z,-1.18
2019-01-29T17:35:48.259Z,-1.21
2019-01-29T17:38:18.677Z,-1.28
2019-01-29T17:40:48.158Z,-1.34
2019-01-29T17:43:17.620Z,-1.42
2019-01-29T17:45:49.651Z,-1.47
2019-01-29T17:48:19.130Z,-1.51
2019-01-29T17:50:48.663Z,-1.59
2019-01-29T17:53:18.164Z,-1.59
2019-01-29T17:55:47.914Z,-1.58
2019-01-29T17:58:18.233Z,-1.57
2019-01-29T18:00:49.447Z,-1.53
2019-01-29T18:03:18.915Z,-1.58
2019-01-29T18:05:48.446Z,-1.59
2019-01-29T18:08:18.288Z,-1.59
2019-01-29T18:10:47.827Z,-1.62
2019-01-29T18:13:17.297Z,-1.67
2019-01-29T18:15:47.043Z,-1.62
2019-01-29T18:18:16.508Z,-1.61
2019-01-29T18:20:46.234Z,-1.65
2019-01-29T18:23:15.701Z,-1.64
2019-01-29T18:25:45.509Z,-1.69
2019-01-29T18:28:14.926Z,-1.71
2019-01-29T18:30:44.687Z,-1.79
2019-01-29T18:33:14.443Z,-1.83
2019-01-29T18:35:43.919Z,-1.74
2019-01-29T18:38:13.395Z,-1.74
2019-01-29T18:40:49.183Z,-1.77
2019-01-29T18:43:18.660Z,-1.80
2019-01-29T18:45:48.139Z,-1.81
2019-01-29T18:48:17.604Z,-1.81
2019-01-29T18:50:47.076Z,-1.87
2019-01-29T18:53:16.537Z,-1.91
2019-01-29T18:55:46.340Z,-1.88
2019-01-29T18:58:15.880Z,-1.88
2019-01-29T19:00:54.258Z,-1.92
2019-01-29T19:03:17.602Z,-1.91
2019-01-29T19:05:47.102Z,-1.93
2019-01-29T19:08:16.681Z,-1.97
2019-01-29T19:10:46.228Z,-2.04
2019-01-29T19:13:16.209Z,-2.03
2019-01-29T19:15:45.711Z,-2.04
2019-01-29T19:18:15.277Z,-2.06
2019-01-29T19:20:44.824Z,-2.06
2019-01-29T19:23:14.360Z,-2.05
2019-01-29T19:25:43.927Z,-2.08
2019-01-29T19:28:21.605Z,-2.14
2019-01-29T19:30:44.809Z,-2.11
2019-01-29T19:33:14.658Z,-2.12
2019-01-29T19:35:44.120Z,-2.19
2019-01-29T19:38:13.677Z,-2.14
2019-01-29T19:40:43.139Z,-2.11
2019-01-29T19:43:13.740Z,-2.12
2019-01-29T19:45:43.271Z,-2.06
2019-01-29T19:48:12.753Z,-2.05
2019-01-29T19:50:42.217Z,-2.09
2019-01-29T19:53:13.546Z,-2.12
2019-01-29T19:55:43.388Z,-2.19
2019-01-29T19:58:12.913Z,-2.21
2019-01-29T20:00:42.695Z,-2.25
2019-01-29T20:03:12.729Z,-2.26
2019-01-29T20:05:42.284Z,-2.27
2019-01-29T20:08:11.769Z,-2.36
2019-01-29T20:10:41.329Z,-2.32
2019-01-29T20:13:10.896Z,-2.27
2019-01-29T20:15:40.829Z,-2.21
2019-01-29T20:18:10.455Z,-2.15
2019-01-29T20:20:41.438Z,-2.09
2019-01-29T20:23:10.923Z,-1.96
2019-01-29T20:25:40.717Z,-1.98
2019-01-29T20:28:10.369Z,-2.01
2019-01-29T20:30:40.606Z,-2.05
2019-01-29T20:33:10.495Z,-2.10
2019-01-29T20:35:40.127Z,-2.12
2019-01-29T20:38:09.786Z,-2.11
2019-01-29T20:40:39.260Z,-2.17
2019-01-29T20:43:09.353Z,-2.20
2019-01-29T20:45:38.828Z,-2.24
2019-01-29T20:48:08.570Z,-2.27
2019-01-29T20:50:38.255Z,-2.26
2019-01-29T20:53:07.750Z,-2.35
2019-01-29T20:55:37.309Z,-2.39
2019-01-29T20:58:06.931Z,-2.45
2019-01-29T21:00:39.579Z,-2.49
2019-01-29T21:03:09.047Z,-2.57
2019-01-29T21:05:38.529Z,-2.56
2019-01-29T21:08:08.177Z,-2.50
2019-01-29T21:10:37.697Z,-2.48
2019-01-29T21:13:07.201Z,-2.45
2019-01-29T21:15:38.651Z,-2.50
2019-01-29T21:18:08.331Z,-2.51
2019-01-29T21:20:37.811Z,-2.53
2019-01-29T21:23:07.488Z,-2.62
2019-01-29T21:25:36.960Z,-2.67
2019-01-29T21:28:06.540Z,-2.75
2019-01-29T21:30:38.702Z,-2.75
2019-01-29T21:33:09.412Z,-2.82
2019-01-29T21:35:39.364Z,-2.88
2019-01-29T21:38:08.855Z,-2.99
2019-01-29T21:40:38.677Z,-2.99
2019-01-29T21:43:08.169Z,-3.04
2019-01-29T21:45:37.645Z,-3.03
2019-01-29T21:48:07.303Z,-3.06
2019-01-29T21:50:37.206Z,-2.99
2019-01-29T21:53:06.705Z,-2.96
2019-01-29T21:55:36.531Z,-2.91
2019-01-29T21:58:06.175Z,-2.95
2019-01-29T22:00:40.942Z,-3.00
2019-01-29T22:03:10.523Z,-3.02
2019-01-29T22:05:40.384Z,-3.01
2019-01-29T22:08:10.003Z,-2.96
2019-01-29T22:10:41.215Z,-2.97
2019-01-29T22:13:11.515Z,-3.06
2019-01-29T22:15:41.065Z,-3.12
2019-01-29T22:18:10.683Z,-3.17
2019-01-29T22:20:40.332Z,-3.27
2019-01-29T22:23:09.801Z,-3.34
2019-01-29T22:25:40.459Z,-3.33
2019-01-29T22:28:10.099Z,-3.41
2019-01-29T22:30:41.110Z,-3.41
2019-01-29T22:33:10.664Z,-3.38
2019-01-29T22:35:40.221Z,-3.36
2019-01-29T22:38:09.864Z,-3.45
2019-01-29T22:40:39.319Z,-3.39
2019-01-29T22:43:08.805Z,-3.33
2019-01-29T22:45:38.268Z,-3.35
2019-01-29T22:48:07.927Z,-3.33
2019-01-29T22:50:39.516Z,-3.33
2019-01-29T22:53:28.437Z,-3.35
2019-01-29T22:55:57.923Z,-3.40
2019-01-29T22:58:27.746Z,-3.43
2019-01-29T23:01:03.557Z,-3.45
2019-01-29T23:03:36.197Z,-3.51
2019-01-29T23:06:11.430Z,-3.51
2019-01-29T23:08:40.906Z,-3.53
2019-01-29T23:11:10.445Z,-3.54
2019-01-29T23:13:40.180Z,-3.55
2019-01-29T23:16:09.799Z,-3.58
2019-01-29T23:18:39.649Z,-3.62
2019-01-29T23:21:09.116Z,-3.67
2019-01-29T23:23:41.628Z,-3.71
2019-01-29T23:26:11.100Z,-3.73
2019-01-29T23:28:40.589Z,-3.76
2019-01-29T23:31:10.340Z,-3.77
2019-01-29T23:33:40.173Z,-3.84
2019-01-29T23:36:09.816Z,-3.89
2019-01-29T23:38:39.671Z,-3.84
2019-01-29T23:41:09.151Z,-3.87
2019-01-29T23:43:38.640Z,-3.81
2019-01-29T23:46:08.131Z,-3.87
2019-01-29T23:48:37.615Z,-3.89
2019-01-29T23:51:07.146Z,-3.86
2019-01-29T23:53:36.656Z,-3.93
2019-01-29T23:56:06.157Z,-3.89
2019-01-29T23:58:35.927Z,-3.86
